sensor_id;sensor_type;location;lat;lon;timestamp;P1;durP1;ratioP1;P2;durP2;ratioP2
6463;SDS011;3265;42.694;23.282;2023-08-30T00:01:28;11.82;;;7.80;;
6463;SDS011;3265;42.694;23.282;2023-08-30T00:03:55;11.73;;;7.32;;
6463;SDS011;3265;42.694;23.282;2023-08-30T00:06:21;12.00;;;7.25;;
6463;SDS011;3265;42.694;23.282;2023-08-30T00:08:48;13.10;;;7.70;;
6463;SDS011;3265;42.694;23.282;2023-08-30T00:11:15;14.20;;;7.30;;
6463;SDS011;3265;42.694;23.282;2023-08-30T00:13:46;11.73;;;7.63;;
6463;SDS011;3265;42.694;23.282;2023-08-30T00:16:13;10.30;;;7.55;;
6463;SDS011;3265;42.694;23.282;2023-08-30T00:18:42;12.05;;;7.22;;
6463;SDS011;3265;42.694;23.282;2023-08-30T00:21:09;11.55;;;7.07;;
6463;SDS011;3265;42.694;23.282;2023-08-30T00:23:36;13.18;;;7.78;;
6463;SDS011;3265;42.694;23.282;2023-08-30T00:26:03;10.52;;;7.82;;
6463;SDS011;3265;42.694;23.282;2023-08-30T00:28:30;10.82;;;7.68;;
6463;SDS011;3265;42.694;23.282;2023-08-30T00:31:04;11.70;;;7.85;;
6463;SDS011;3265;42.694;23.282;2023-08-30T00:33:31;10.60;;;7.30;;
6463;SDS011;3265;42.694;23.282;2023-08-30T00:35:57;11.38;;;7.70;;
6463;SDS011;3265;42.694;23.282;2023-08-30T00:38:25;12.00;;;7.47;;
6463;SDS011;3265;42.694;23.282;2023-08-30T00:40:53;11.18;;;7.97;;
6463;SDS011;3265;42.694;23.282;2023-08-30T00:43:20;14.45;;;7.88;;
6463;SDS011;3265;42.694;23.282;2023-08-30T00:45:47;12.20;;;7.50;;
6463;SDS011;3265;42.694;23.282;2023-08-30T00:48:17;9.48;;;7.03;;
6463;SDS011;3265;42.694;23.282;2023-08-30T00:50:45;10.85;;;7.32;;
6463;SDS011;3265;42.694;23.282;2023-08-30T00:53:13;12.57;;;6.70;;
6463;SDS011;3265;42.694;23.282;2023-08-30T00:55:41;10.30;;;6.80;;
6463;SDS011;3265;42.694;23.282;2023-08-30T00:58:09;9.70;;;6.72;;
6463;SDS011;3265;42.694;23.282;2023-08-30T01:00:36;10.00;;;7.72;;
6463;SDS011;3265;42.694;23.282;2023-08-30T01:03:04;10.75;;;6.57;;
6463;SDS011;3265;42.694;23.282;2023-08-30T01:05:33;12.27;;;7.00;;
6463;SDS011;3265;42.694;23.282;2023-08-30T01:08:00;10.68;;;6.38;;
6463;SDS011;3265;42.694;23.282;2023-08-30T01:10:31;10.75;;;7.00;;
6463;SDS011;3265;42.694;23.282;2023-08-30T01:13:08;14.30;;;6.90;;
6463;SDS011;3265;42.694;23.282;2023-08-30T01:15:38;12.38;;;7.28;;
6463;SDS011;3265;42.694;23.282;2023-08-30T01:18:07;13.85;;;6.63;;
6463;SDS011;3265;42.694;23.282;2023-08-30T01:20:37;11.35;;;6.90;;
6463;SDS011;3265;42.694;23.282;2023-08-30T01:23:06;11.10;;;6.43;;
6463;SDS011;3265;42.694;23.282;2023-08-30T01:25:45;10.30;;;6.55;;
6463;SDS011;3265;42.694;23.282;2023-08-30T01:28:23;11.00;;;6.65;;
6463;SDS011;3265;42.694;23.282;2023-08-30T01:30:53;10.43;;;6.30;;
6463;SDS011;3265;42.694;23.282;2023-08-30T01:33:22;9.30;;;6.65;;
6463;SDS011;3265;42.694;23.282;2023-08-30T01:35:52;10.77;;;7.05;;
6463;SDS011;3265;42.694;23.282;2023-08-30T01:38:20;11.20;;;7.07;;
6463;SDS011;3265;42.694;23.282;2023-08-30T01:40:51;12.55;;;6.78;;
6463;SDS011;3265;42.694;23.282;2023-08-30T01:43:19;11.10;;;6.63;;
6463;SDS011;3265;42.694;23.282;2023-08-30T01:45:49;11.05;;;6.80;;
6463;SDS011;3265;42.694;23.282;2023-08-30T01:48:16;13.02;;;6.40;;
6463;SDS011;3265;42.694;23.282;2023-08-30T01:50:45;10.02;;;6.90;;
6463;SDS011;3265;42.694;23.282;2023-08-30T01:53:13;11.88;;;6.60;;
6463;SDS011;3265;42.694;23.282;2023-08-30T01:55:40;9.93;;;6.40;;
6463;SDS011;3265;42.694;23.282;2023-08-30T01:58:08;9.60;;;6.63;;
6463;SDS011;3265;42.694;23.282;2023-08-30T02:00:35;11.30;;;6.45;;
6463;SDS011;3265;42.694;23.282;2023-08-30T02:03:08;14.32;;;6.50;;
6463;SDS011;3265;42.694;23.282;2023-08-30T02:05:36;9.68;;;6.80;;
6463;SDS011;3265;42.694;23.282;2023-08-30T02:08:09;11.30;;;6.40;;
6463;SDS011;3265;42.694;23.282;2023-08-30T02:10:41;11.48;;;6.57;;
6463;SDS011;3265;42.694;23.282;2023-08-30T02:13:15;9.18;;;6.82;;
6463;SDS011;3265;42.694;23.282;2023-08-30T02:15:44;11.13;;;6.93;;
6463;SDS011;3265;42.694;23.282;2023-08-30T02:18:14;13.70;;;6.47;;
6463;SDS011;3265;42.694;23.282;2023-08-30T02:20:41;11.25;;;6.78;;
6463;SDS011;3265;42.694;23.282;2023-08-30T02:23:09;11.18;;;6.25;;
6463;SDS011;3265;42.694;23.282;2023-08-30T02:25:35;8.65;;;6.60;;
6463;SDS011;3265;42.694;23.282;2023-08-30T02:28:03;15.00;;;7.18;;
6463;SDS011;3265;42.694;23.282;2023-08-30T02:30:30;13.40;;;7.22;;
6463;SDS011;3265;42.694;23.282;2023-08-30T02:32:58;12.00;;;7.10;;
6463;SDS011;3265;42.694;23.282;2023-08-30T02:35:26;12.73;;;7.32;;
6463;SDS011;3265;42.694;23.282;2023-08-30T02:37:53;10.45;;;7.07;;
6463;SDS011;3265;42.694;23.282;2023-08-30T02:40:20;10.85;;;7.25;;
6463;SDS011;3265;42.694;23.282;2023-08-30T02:42:47;14.48;;;7.60;;
6463;SDS011;3265;42.694;23.282;2023-08-30T02:45:14;12.25;;;7.47;;
6463;SDS011;3265;42.694;23.282;2023-08-30T02:47:41;11.20;;;7.85;;
6463;SDS011;3265;42.694;23.282;2023-08-30T02:50:08;11.40;;;7.72;;
6463;SDS011;3265;42.694;23.282;2023-08-30T02:52:36;15.70;;;8.02;;
6463;SDS011;3265;42.694;23.282;2023-08-30T02:55:03;11.80;;;7.90;;
6463;SDS011;3265;42.694;23.282;2023-08-30T02:57:30;14.57;;;8.15;;
6463;SDS011;3265;42.694;23.282;2023-08-30T02:59:57;9.85;;;7.18;;
6463;SDS011;3265;42.694;23.282;2023-08-30T03:02:23;14.73;;;7.80;;
6463;SDS011;3265;42.694;23.282;2023-08-30T03:04:50;10.63;;;7.38;;
6463;SDS011;3265;42.694;23.282;2023-08-30T03:07:17;16.67;;;7.55;;
6463;SDS011;3265;42.694;23.282;2023-08-30T03:09:45;12.05;;;7.60;;
6463;SDS011;3265;42.694;23.282;2023-08-30T03:12:12;12.55;;;7.70;;
6463;SDS011;3265;42.694;23.282;2023-08-30T03:14:39;17.75;;;7.47;;
6463;SDS011;3265;42.694;23.282;2023-08-30T03:17:06;10.40;;;7.45;;
6463;SDS011;3265;42.694;23.282;2023-08-30T03:19:33;14.10;;;6.82;;
6463;SDS011;3265;42.694;23.282;2023-08-30T03:22:00;9.77;;;6.60;;
6463;SDS011;3265;42.694;23.282;2023-08-30T03:24:26;14.90;;;6.85;;
6463;SDS011;3265;42.694;23.282;2023-08-30T03:26:55;9.38;;;6.28;;
6463;SDS011;3265;42.694;23.282;2023-08-30T03:29:21;11.75;;;6.57;;
6463;SDS011;3265;42.694;23.282;2023-08-30T03:31:48;13.85;;;6.40;;
6463;SDS011;3265;42.694;23.282;2023-08-30T03:34:15;9.13;;;5.78;;
6463;SDS011;3265;42.694;23.282;2023-08-30T03:36:42;8.80;;;6.15;;
6463;SDS011;3265;42.694;23.282;2023-08-30T03:39:09;10.15;;;5.85;;
6463;SDS011;3265;42.694;23.282;2023-08-30T03:41:37;10.93;;;6.68;;
6463;SDS011;3265;42.694;23.282;2023-08-30T03:44:07;12.95;;;6.82;;
6463;SDS011;3265;42.694;23.282;2023-08-30T03:46:34;10.65;;;6.88;;
6463;SDS011;3265;42.694;23.282;2023-08-30T03:49:01;13.93;;;7.72;;
6463;SDS011;3265;42.694;23.282;2023-08-30T03:51:28;15.63;;;7.28;;
6463;SDS011;3265;42.694;23.282;2023-08-30T03:53:55;18.17;;;7.93;;
6463;SDS011;3265;42.694;23.282;2023-08-30T03:56:22;16.00;;;6.85;;
6463;SDS011;3265;42.694;23.282;2023-08-30T03:58:49;17.60;;;7.28;;
6463;SDS011;3265;42.694;23.282;2023-08-30T04:01:17;14.38;;;6.97;;
6463;SDS011;3265;42.694;23.282;2023-08-30T04:03:44;17.20;;;6.85;;
6463;SDS011;3265;42.694;23.282;2023-08-30T04:06:11;13.07;;;7.22;;
6463;SDS011;3265;42.694;23.282;2023-08-30T04:08:38;15.23;;;7.78;;
6463;SDS011;3265;42.694;23.282;2023-08-30T04:11:05;16.30;;;7.65;;
6463;SDS011;3265;42.694;23.282;2023-08-30T04:13:32;19.80;;;7.32;;
6463;SDS011;3265;42.694;23.282;2023-08-30T04:16:00;17.42;;;7.75;;
6463;SDS011;3265;42.694;23.282;2023-08-30T04:18:30;15.23;;;7.05;;
6463;SDS011;3265;42.694;23.282;2023-08-30T04:20:57;15.98;;;6.90;;
6463;SDS011;3265;42.694;23.282;2023-08-30T04:23:27;14.18;;;6.88;;
6463;SDS011;3265;42.694;23.282;2023-08-30T04:25:54;19.60;;;9.52;;
6463;SDS011;3265;42.694;23.282;2023-08-30T04:28:21;19.60;;;7.75;;
6463;SDS011;3265;42.694;23.282;2023-08-30T04:30:48;14.70;;;7.60;;
6463;SDS011;3265;42.694;23.282;2023-08-30T04:33:18;15.52;;;8.38;;
6463;SDS011;3265;42.694;23.282;2023-08-30T04:35:50;18.15;;;7.65;;
6463;SDS011;3265;42.694;23.282;2023-08-30T04:38:17;26.08;;;7.43;;
6463;SDS011;3265;42.694;23.282;2023-08-30T04:40:45;21.48;;;7.40;;
6463;SDS011;3265;42.694;23.282;2023-08-30T04:43:12;12.93;;;5.82;;
6463;SDS011;3265;42.694;23.282;2023-08-30T04:45:38;12.05;;;4.85;;
6463;SDS011;3265;42.694;23.282;2023-08-30T04:48:05;10.13;;;5.13;;
6463;SDS011;3265;42.694;23.282;2023-08-30T04:50:32;11.93;;;4.72;;
6463;SDS011;3265;42.694;23.282;2023-08-30T04:53:01;8.95;;;4.82;;
6463;SDS011;3265;42.694;23.282;2023-08-30T04:55:28;8.73;;;4.95;;
6463;SDS011;3265;42.694;23.282;2023-08-30T04:57:55;10.40;;;4.60;;
6463;SDS011;3265;42.694;23.282;2023-08-30T05:00:27;11.30;;;4.85;;
6463;SDS011;3265;42.694;23.282;2023-08-30T05:02:56;12.82;;;4.85;;
6463;SDS011;3265;42.694;23.282;2023-08-30T05:05:23;11.68;;;4.32;;
6463;SDS011;3265;42.694;23.282;2023-08-30T05:07:50;12.98;;;5.20;;
6463;SDS011;3265;42.694;23.282;2023-08-30T05:10:18;13.63;;;4.55;;
6463;SDS011;3265;42.694;23.282;2023-08-30T05:12:45;13.45;;;4.72;;
6463;SDS011;3265;42.694;23.282;2023-08-30T05:15:16;9.43;;;4.38;;
6463;SDS011;3265;42.694;23.282;2023-08-30T05:17:43;10.38;;;4.90;;
6463;SDS011;3265;42.694;23.282;2023-08-30T05:20:10;9.90;;;4.45;;
6463;SDS011;3265;42.694;23.282;2023-08-30T05:22:37;10.00;;;4.63;;
6463;SDS011;3265;42.694;23.282;2023-08-30T05:25:05;8.98;;;4.57;;
6463;SDS011;3265;42.694;23.282;2023-08-30T05:27:33;7.07;;;4.25;;
6463;SDS011;3265;42.694;23.282;2023-08-30T05:30:00;12.75;;;4.47;;
6463;SDS011;3265;42.694;23.282;2023-08-30T05:32:28;8.23;;;4.90;;
6463;SDS011;3265;42.694;23.282;2023-08-30T05:34:58;10.05;;;5.07;;
6463;SDS011;3265;42.694;23.282;2023-08-30T05:37:25;8.00;;;4.00;;
6463;SDS011;3265;42.694;23.282;2023-08-30T05:42:23;9.75;;;4.57;;
6463;SDS011;3265;42.694;23.282;2023-08-30T05:44:52;8.45;;;4.30;;
6463;SDS011;3265;42.694;23.282;2023-08-30T05:47:20;10.20;;;4.18;;
6463;SDS011;3265;42.694;23.282;2023-08-30T05:49:47;9.20;;;4.00;;
6463;SDS011;3265;42.694;23.282;2023-08-30T05:52:15;6.45;;;3.72;;
6463;SDS011;3265;42.694;23.282;2023-08-30T05:54:43;8.90;;;4.43;;
6463;SDS011;3265;42.694;23.282;2023-08-30T05:57:12;8.18;;;4.03;;
6463;SDS011;3265;42.694;23.282;2023-08-30T05:59:39;11.90;;;4.60;;
6463;SDS011;3265;42.694;23.282;2023-08-30T06:02:07;9.50;;;3.95;;
6463;SDS011;3265;42.694;23.282;2023-08-30T06:04:37;7.60;;;4.43;;
6463;SDS011;3265;42.694;23.282;2023-08-30T06:07:06;11.27;;;4.65;;
6463;SDS011;3265;42.694;23.282;2023-08-30T06:09:34;9.70;;;4.40;;
6463;SDS011;3265;42.694;23.282;2023-08-30T06:12:03;8.38;;;4.25;;
6463;SDS011;3265;42.694;23.282;2023-08-30T06:14:34;8.73;;;4.47;;
6463;SDS011;3265;42.694;23.282;2023-08-30T06:17:01;7.15;;;4.38;;
6463;SDS011;3265;42.694;23.282;2023-08-30T06:19:30;8.95;;;3.80;;
6463;SDS011;3265;42.694;23.282;2023-08-30T06:21:57;11.10;;;4.40;;
6463;SDS011;3265;42.694;23.282;2023-08-30T06:24:24;6.35;;;3.80;;
6463;SDS011;3265;42.694;23.282;2023-08-30T06:26:51;8.85;;;4.10;;
6463;SDS011;3265;42.694;23.282;2023-08-30T06:29:18;9.23;;;4.50;;
6463;SDS011;3265;42.694;23.282;2023-08-30T06:31:46;7.50;;;4.43;;
6463;SDS011;3265;42.694;23.282;2023-08-30T06:34:13;10.50;;;5.15;;
6463;SDS011;3265;42.694;23.282;2023-08-30T06:36:41;7.38;;;4.15;;
6463;SDS011;3265;42.694;23.282;2023-08-30T06:39:08;8.18;;;4.00;;
6463;SDS011;3265;42.694;23.282;2023-08-30T06:41:38;7.65;;;4.22;;
6463;SDS011;3265;42.694;23.282;2023-08-30T06:44:05;6.82;;;4.25;;
6463;SDS011;3265;42.694;23.282;2023-08-30T06:46:36;12.43;;;4.93;;
6463;SDS011;3265;42.694;23.282;2023-08-30T06:49:05;9.75;;;4.22;;
6463;SDS011;3265;42.694;23.282;2023-08-30T06:51:34;6.85;;;4.60;;
6463;SDS011;3265;42.694;23.282;2023-08-30T06:54:05;8.10;;;4.28;;
6463;SDS011;3265;42.694;23.282;2023-08-30T06:56:34;8.57;;;4.57;;
6463;SDS011;3265;42.694;23.282;2023-08-30T06:59:01;11.32;;;4.95;;
6463;SDS011;3265;42.694;23.282;2023-08-30T07:01:28;10.38;;;4.82;;
6463;SDS011;3265;42.694;23.282;2023-08-30T07:03:55;10.05;;;4.70;;
6463;SDS011;3265;42.694;23.282;2023-08-30T07:06:22;8.18;;;4.35;;
6463;SDS011;3265;42.694;23.282;2023-08-30T07:08:49;7.38;;;4.82;;
6463;SDS011;3265;42.694;23.282;2023-08-30T07:11:17;10.02;;;5.45;;
6463;SDS011;3265;42.694;23.282;2023-08-30T07:13:44;8.75;;;4.63;;
6463;SDS011;3265;42.694;23.282;2023-08-30T07:16:11;11.15;;;4.43;;
6463;SDS011;3265;42.694;23.282;2023-08-30T07:18:38;10.55;;;4.95;;
6463;SDS011;3265;42.694;23.282;2023-08-30T07:21:05;10.95;;;4.78;;
6463;SDS011;3265;42.694;23.282;2023-08-30T07:23:32;16.20;;;4.90;;
6463;SDS011;3265;42.694;23.282;2023-08-30T07:25:59;9.48;;;4.57;;
6463;SDS011;3265;42.694;23.282;2023-08-30T07:28:27;12.55;;;4.40;;
6463;SDS011;3265;42.694;23.282;2023-08-30T07:31:01;11.77;;;4.90;;
6463;SDS011;3265;42.694;23.282;2023-08-30T07:33:28;11.63;;;4.85;;
6463;SDS011;3265;42.694;23.282;2023-08-30T07:35:55;10.77;;;4.80;;
6463;SDS011;3265;42.694;23.282;2023-08-30T07:38:22;9.27;;;4.53;;
6463;SDS011;3265;42.694;23.282;2023-08-30T07:40:49;9.30;;;4.97;;
6463;SDS011;3265;42.694;23.282;2023-08-30T07:43:16;9.25;;;5.00;;
6463;SDS011;3265;42.694;23.282;2023-08-30T07:45:45;10.15;;;4.85;;
6463;SDS011;3265;42.694;23.282;2023-08-30T07:48:12;9.52;;;4.53;;
6463;SDS011;3265;42.694;23.282;2023-08-30T07:50:39;9.73;;;4.53;;
6463;SDS011;3265;42.694;23.282;2023-08-30T07:53:06;8.15;;;4.40;;
6463;SDS011;3265;42.694;23.282;2023-08-30T07:55:32;8.02;;;4.68;;
6463;SDS011;3265;42.694;23.282;2023-08-30T07:57:59;9.35;;;4.65;;
6463;SDS011;3265;42.694;23.282;2023-08-30T08:00:28;9.88;;;4.82;;
6463;SDS011;3265;42.694;23.282;2023-08-30T08:02:56;16.77;;;5.50;;
6463;SDS011;3265;42.694;23.282;2023-08-30T08:05:23;12.02;;;4.30;;
6463;SDS011;3265;42.694;23.282;2023-08-30T08:07:51;7.72;;;4.43;;
6463;SDS011;3265;42.694;23.282;2023-08-30T08:10:19;10.38;;;4.15;;
6463;SDS011;3265;42.694;23.282;2023-08-30T08:12:47;11.02;;;4.60;;
6463;SDS011;3265;42.694;23.282;2023-08-30T08:15:14;9.50;;;5.57;;
6463;SDS011;3265;42.694;23.282;2023-08-30T08:17:41;10.25;;;4.90;;
6463;SDS011;3265;42.694;23.282;2023-08-30T08:20:10;10.95;;;4.35;;
6463;SDS011;3265;42.694;23.282;2023-08-30T08:22:37;8.20;;;4.20;;
6463;SDS011;3265;42.694;23.282;2023-08-30T08:25:04;6.53;;;3.65;;
6463;SDS011;3265;42.694;23.282;2023-08-30T08:27:35;5.30;;;3.67;;
6463;SDS011;3265;42.694;23.282;2023-08-30T08:30:02;5.30;;;3.75;;
6463;SDS011;3265;42.694;23.282;2023-08-30T08:32:30;6.80;;;4.20;;
6463;SDS011;3265;42.694;23.282;2023-08-30T08:34:57;8.45;;;3.90;;
6463;SDS011;3265;42.694;23.282;2023-08-30T08:37:25;9.88;;;4.90;;
6463;SDS011;3265;42.694;23.282;2023-08-30T08:39:52;9.52;;;3.97;;
6463;SDS011;3265;42.694;23.282;2023-08-30T08:42:19;6.78;;;3.78;;
6463;SDS011;3265;42.694;23.282;2023-08-30T08:44:47;7.20;;;3.97;;
6463;SDS011;3265;42.694;23.282;2023-08-30T08:47:16;6.72;;;3.90;;
6463;SDS011;3265;42.694;23.282;2023-08-30T08:49:45;10.70;;;4.10;;
6463;SDS011;3265;42.694;23.282;2023-08-30T08:52:13;9.90;;;4.10;;
6463;SDS011;3265;42.694;23.282;2023-08-30T08:54:41;6.07;;;3.55;;
6463;SDS011;3265;42.694;23.282;2023-08-30T08:57:09;7.95;;;3.55;;
6463;SDS011;3265;42.694;23.282;2023-08-30T08:59:36;10.38;;;3.60;;
6463;SDS011;3265;42.694;23.282;2023-08-30T09:02:03;5.43;;;3.67;;
6463;SDS011;3265;42.694;23.282;2023-08-30T09:04:31;8.55;;;4.55;;
6463;SDS011;3265;42.694;23.282;2023-08-30T09:07:02;8.13;;;3.88;;
6463;SDS011;3265;42.694;23.282;2023-08-30T09:09:50;8.30;;;4.03;;
6463;SDS011;3265;42.694;23.282;2023-08-30T09:12:33;8.73;;;3.92;;
6463;SDS011;3265;42.694;23.282;2023-08-30T09:15:01;8.05;;;3.70;;
6463;SDS011;3265;42.694;23.282;2023-08-30T09:17:35;7.00;;;3.85;;
6463;SDS011;3265;42.694;23.282;2023-08-30T09:20:09;11.25;;;4.25;;
6463;SDS011;3265;42.694;23.282;2023-08-30T09:22:37;7.60;;;4.43;;
6463;SDS011;3265;42.694;23.282;2023-08-30T09:25:08;8.77;;;4.40;;
6463;SDS011;3265;42.694;23.282;2023-08-30T09:27:36;9.95;;;4.68;;
6463;SDS011;3265;42.694;23.282;2023-08-30T09:30:07;8.40;;;4.45;;
6463;SDS011;3265;42.694;23.282;2023-08-30T09:32:39;5.75;;;3.80;;
6463;SDS011;3265;42.694;23.282;2023-08-30T09:35:08;7.85;;;4.22;;
6463;SDS011;3265;42.694;23.282;2023-08-30T09:37:36;7.85;;;4.40;;
6463;SDS011;3265;42.694;23.282;2023-08-30T09:40:03;8.20;;;4.75;;
6463;SDS011;3265;42.694;23.282;2023-08-30T09:42:32;7.75;;;4.32;;
6463;SDS011;3265;42.694;23.282;2023-08-30T09:44:59;6.45;;;4.50;;
6463;SDS011;3265;42.694;23.282;2023-08-30T09:47:26;10.75;;;5.22;;
6463;SDS011;3265;42.694;23.282;2023-08-30T09:49:55;7.75;;;4.88;;
6463;SDS011;3265;42.694;23.282;2023-08-30T09:52:24;10.60;;;5.00;;
6463;SDS011;3265;42.694;23.282;2023-08-30T09:54:52;6.15;;;4.43;;
6463;SDS011;3265;42.694;23.282;2023-08-30T09:57:20;7.22;;;4.88;;
6463;SDS011;3265;42.694;23.282;2023-08-30T09:59:49;6.18;;;4.68;;
6463;SDS011;3265;42.694;23.282;2023-08-30T10:02:16;9.93;;;5.20;;
6463;SDS011;3265;42.694;23.282;2023-08-30T10:04:44;10.23;;;4.97;;
6463;SDS011;3265;42.694;23.282;2023-08-30T10:07:12;9.07;;;4.97;;
6463;SDS011;3265;42.694;23.282;2023-08-30T10:09:40;8.68;;;4.93;;
6463;SDS011;3265;42.694;23.282;2023-08-30T10:12:08;9.73;;;5.07;;
6463;SDS011;3265;42.694;23.282;2023-08-30T10:14:36;5.32;;;4.07;;
6463;SDS011;3265;42.694;23.282;2023-08-30T10:17:05;8.10;;;4.80;;
6463;SDS011;3265;42.694;23.282;2023-08-30T10:19:35;9.88;;;4.88;;
6463;SDS011;3265;42.694;23.282;2023-08-30T10:22:05;10.65;;;5.30;;
6463;SDS011;3265;42.694;23.282;2023-08-30T10:24:35;8.30;;;5.15;;
6463;SDS011;3265;42.694;23.282;2023-08-30T10:27:06;7.70;;;5.28;;
6463;SDS011;3265;42.694;23.282;2023-08-30T10:29:35;10.45;;;4.80;;
6463;SDS011;3265;42.694;23.282;2023-08-30T10:32:05;8.07;;;4.72;;
6463;SDS011;3265;42.694;23.282;2023-08-30T10:34:37;8.85;;;5.75;;
6463;SDS011;3265;42.694;23.282;2023-08-30T10:37:06;13.02;;;5.53;;
6463;SDS011;3265;42.694;23.282;2023-08-30T10:39:35;10.85;;;4.97;;
6463;SDS011;3265;42.694;23.282;2023-08-30T10:42:09;7.47;;;5.32;;
6463;SDS011;3265;42.694;23.282;2023-08-30T10:44:46;8.75;;;4.70;;
6463;SDS011;3265;42.694;23.282;2023-08-30T10:47:23;10.73;;;5.22;;
6463;SDS011;3265;42.694;23.282;2023-08-30T10:49:53;9.32;;;5.65;;
6463;SDS011;3265;42.694;23.282;2023-08-30T10:52:20;7.18;;;4.85;;
6463;SDS011;3265;42.694;23.282;2023-08-30T10:54:47;6.13;;;4.82;;
6463;SDS011;3265;42.694;23.282;2023-08-30T10:57:15;8.85;;;5.03;;
6463;SDS011;3265;42.694;23.282;2023-08-30T11:02:32;7.15;;;5.63;;
6463;SDS011;3265;42.694;23.282;2023-08-30T11:05:02;15.70;;;6.45;;
6463;SDS011;3265;42.694;23.282;2023-08-30T11:08:06;28.98;;;13.20;;
6463;SDS011;3265;42.694;23.282;2023-08-30T11:10:34;14.55;;;8.02;;
6463;SDS011;3265;42.694;23.282;2023-08-30T11:13:03;9.75;;;5.25;;
6463;SDS011;3265;42.694;23.282;2023-08-30T11:15:32;9.75;;;5.57;;
6463;SDS011;3265;42.694;23.282;2023-08-30T11:18:12;10.48;;;5.60;;
6463;SDS011;3265;42.694;23.282;2023-08-30T11:20:43;9.73;;;4.70;;
6463;SDS011;3265;42.694;23.282;2023-08-30T11:23:20;13.77;;;5.32;;
6463;SDS011;3265;42.694;23.282;2023-08-30T11:25:50;12.15;;;5.28;;
6463;SDS011;3265;42.694;23.282;2023-08-30T11:28:23;7.47;;;4.82;;
6463;SDS011;3265;42.694;23.282;2023-08-30T11:30:59;13.23;;;5.10;;
6463;SDS011;3265;42.694;23.282;2023-08-30T11:33:36;11.65;;;5.20;;
6463;SDS011;3265;42.694;23.282;2023-08-30T11:36:07;7.55;;;5.03;;
6463;SDS011;3265;42.694;23.282;2023-08-30T11:38:37;7.53;;;4.47;;
6463;SDS011;3265;42.694;23.282;2023-08-30T11:41:07;8.70;;;5.18;;
6463;SDS011;3265;42.694;23.282;2023-08-30T11:43:37;9.52;;;4.80;;
6463;SDS011;3265;42.694;23.282;2023-08-30T11:46:07;8.15;;;5.05;;
6463;SDS011;3265;42.694;23.282;2023-08-30T11:48:40;8.95;;;4.95;;
6463;SDS011;3265;42.694;23.282;2023-08-30T11:51:09;10.35;;;4.50;;
6463;SDS011;3265;42.694;23.282;2023-08-30T11:53:39;9.10;;;4.55;;
6463;SDS011;3265;42.694;23.282;2023-08-30T11:56:15;9.55;;;4.32;;
6463;SDS011;3265;42.694;23.282;2023-08-30T11:58:44;10.02;;;4.85;;
6463;SDS011;3265;42.694;23.282;2023-08-30T12:01:21;9.93;;;5.30;;
6463;SDS011;3265;42.694;23.282;2023-08-30T12:03:50;7.50;;;5.32;;
6463;SDS011;3265;42.694;23.282;2023-08-30T12:06:25;6.63;;;4.80;;
6463;SDS011;3265;42.694;23.282;2023-08-30T12:09:03;6.38;;;4.95;;
6463;SDS011;3265;42.694;23.282;2023-08-30T12:11:41;10.25;;;4.60;;
6463;SDS011;3265;42.694;23.282;2023-08-30T12:14:19;8.35;;;5.05;;
6463;SDS011;3265;42.694;23.282;2023-08-30T12:16:47;7.63;;;5.32;;
6463;SDS011;3265;42.694;23.282;2023-08-30T12:19:15;8.48;;;5.43;;
6463;SDS011;3265;42.694;23.282;2023-08-30T12:21:43;9.32;;;5.47;;
6463;SDS011;3265;42.694;23.282;2023-08-30T12:24:11;7.45;;;5.07;;
6463;SDS011;3265;42.694;23.282;2023-08-30T12:26:41;9.63;;;5.35;;
6463;SDS011;3265;42.694;23.282;2023-08-30T12:29:10;7.57;;;5.25;;
6463;SDS011;3265;42.694;23.282;2023-08-30T12:31:40;8.07;;;5.07;;
6463;SDS011;3265;42.694;23.282;2023-08-30T12:34:07;7.72;;;4.88;;
6463;SDS011;3265;42.694;23.282;2023-08-30T12:36:42;7.20;;;5.25;;
6463;SDS011;3265;42.694;23.282;2023-08-30T12:39:11;8.98;;;5.05;;
6463;SDS011;3265;42.694;23.282;2023-08-30T12:41:41;8.68;;;5.47;;
6463;SDS011;3265;42.694;23.282;2023-08-30T12:44:12;7.85;;;4.90;;
6463;SDS011;3265;42.694;23.282;2023-08-30T12:46:39;6.68;;;4.57;;
6463;SDS011;3265;42.694;23.282;2023-08-30T12:49:06;8.77;;;4.65;;
6463;SDS011;3265;42.694;23.282;2023-08-30T12:51:35;10.73;;;5.13;;
6463;SDS011;3265;42.694;23.282;2023-08-30T12:54:04;6.53;;;4.82;;
6463;SDS011;3265;42.694;23.282;2023-08-30T12:56:35;6.55;;;4.80;;
6463;SDS011;3265;42.694;23.282;2023-08-30T12:59:02;7.13;;;4.95;;
6463;SDS011;3265;42.694;23.282;2023-08-30T13:01:32;7.85;;;5.28;;
6463;SDS011;3265;42.694;23.282;2023-08-30T13:04:00;8.00;;;4.78;;
6463;SDS011;3265;42.694;23.282;2023-08-30T13:06:32;5.40;;;4.07;;
6463;SDS011;3265;42.694;23.282;2023-08-30T13:09:06;11.07;;;4.65;;
6463;SDS011;3265;42.694;23.282;2023-08-30T13:11:37;8.63;;;4.25;;
6463;SDS011;3265;42.694;23.282;2023-08-30T13:14:11;9.73;;;4.45;;
6463;SDS011;3265;42.694;23.282;2023-08-30T13:16:41;7.07;;;4.20;;
6463;SDS011;3265;42.694;23.282;2023-08-30T13:19:21;5.75;;;4.40;;
6463;SDS011;3265;42.694;23.282;2023-08-30T13:22:03;7.97;;;4.68;;
6463;SDS011;3265;42.694;23.282;2023-08-30T13:24:32;6.97;;;4.45;;
6463;SDS011;3265;42.694;23.282;2023-08-30T13:26:59;9.63;;;4.88;;
6463;SDS011;3265;42.694;23.282;2023-08-30T13:29:28;8.55;;;4.55;;
6463;SDS011;3265;42.694;23.282;2023-08-30T13:31:55;7.75;;;4.15;;
6463;SDS011;3265;42.694;23.282;2023-08-30T13:34:22;6.07;;;4.40;;
6463;SDS011;3265;42.694;23.282;2023-08-30T13:36:49;6.75;;;4.47;;
6463;SDS011;3265;42.694;23.282;2023-08-30T13:39:18;9.15;;;4.57;;
6463;SDS011;3265;42.694;23.282;2023-08-30T13:47:37;6.82;;;4.15;;
6463;SDS011;3265;42.694;23.282;2023-08-30T13:50:17;10.73;;;4.60;;
6463;SDS011;3265;42.694;23.282;2023-08-30T13:53:07;8.25;;;4.72;;
6463;SDS011;3265;42.694;23.282;2023-08-30T13:55:40;7.93;;;4.30;;
6463;SDS011;3265;42.694;23.282;2023-08-30T13:58:17;7.95;;;4.47;;
6463;SDS011;3265;42.694;23.282;2023-08-30T14:00:44;10.00;;;4.40;;
6463;SDS011;3265;42.694;23.282;2023-08-30T14:03:13;7.20;;;3.88;;
6463;SDS011;3265;42.694;23.282;2023-08-30T14:05:40;8.60;;;4.43;;
6463;SDS011;3265;42.694;23.282;2023-08-30T14:08:07;9.57;;;4.47;;
6463;SDS011;3265;42.694;23.282;2023-08-30T14:10:34;8.13;;;4.30;;
6463;SDS011;3265;42.694;23.282;2023-08-30T14:13:01;8.95;;;4.30;;
6463;SDS011;3265;42.694;23.282;2023-08-30T14:15:29;7.35;;;3.90;;
6463;SDS011;3265;42.694;23.282;2023-08-30T14:17:56;15.77;;;4.20;;
6463;SDS011;3265;42.694;23.282;2023-08-30T14:20:23;5.43;;;3.75;;
6463;SDS011;3265;42.694;23.282;2023-08-30T14:22:50;5.78;;;3.78;;
6463;SDS011;3265;42.694;23.282;2023-08-30T14:25:16;7.00;;;3.78;;
6463;SDS011;3265;42.694;23.282;2023-08-30T14:27:43;7.70;;;3.33;;
6463;SDS011;3265;42.694;23.282;2023-08-30T14:30:10;8.50;;;3.92;;
6463;SDS011;3265;42.694;23.282;2023-08-30T14:32:39;11.07;;;3.63;;
6463;SDS011;3265;42.694;23.282;2023-08-30T14:35:06;7.88;;;3.53;;
6463;SDS011;3265;42.694;23.282;2023-08-30T14:37:34;6.85;;;3.97;;
6463;SDS011;3265;42.694;23.282;2023-08-30T14:40:03;8.13;;;3.53;;
6463;SDS011;3265;42.694;23.282;2023-08-30T14:42:30;11.88;;;4.18;;
6463;SDS011;3265;42.694;23.282;2023-08-30T14:44:57;7.28;;;3.50;;
6463;SDS011;3265;42.694;23.282;2023-08-30T14:47:24;11.73;;;4.13;;
6463;SDS011;3265;42.694;23.282;2023-08-30T14:49:55;10.98;;;4.03;;
6463;SDS011;3265;42.694;23.282;2023-08-30T14:52:22;12.88;;;4.15;;
6463;SDS011;3265;42.694;23.282;2023-08-30T14:54:49;13.05;;;4.35;;
6463;SDS011;3265;42.694;23.282;2023-08-30T14:57:15;9.43;;;4.03;;
6463;SDS011;3265;42.694;23.282;2023-08-30T14:59:42;7.75;;;4.47;;
6463;SDS011;3265;42.694;23.282;2023-08-30T15:02:09;9.57;;;4.60;;
6463;SDS011;3265;42.694;23.282;2023-08-30T15:04:36;10.60;;;4.85;;
6463;SDS011;3265;42.694;23.282;2023-08-30T15:07:04;7.65;;;4.60;;
6463;SDS011;3265;42.694;23.282;2023-08-30T15:09:31;8.52;;;4.05;;
6463;SDS011;3265;42.694;23.282;2023-08-30T15:11:58;10.32;;;4.25;;
6463;SDS011;3265;42.694;23.282;2023-08-30T15:14:25;9.52;;;4.22;;
6463;SDS011;3265;42.694;23.282;2023-08-30T15:16:52;10.15;;;4.00;;